sensor_id;sensor_type;location;lat;lon;timestamp;temperature;humidity
3923;DHT22;1976;51.694;6.256;2023-10-31T00:01:44;11.30;99.90
3923;DHT22;1976;51.694;6.256;2023-10-31T00:04:10;11.30;99.90
3923;DHT22;1976;51.694;6.256;2023-10-31T00:06:35;11.20;99.90
3923;DHT22;1976;51.694;6.256;2023-10-31T00:09:01;11.20;99.90
3923;DHT22;1976;51.694;6.256;2023-10-31T00:11:26;11.20;99.90
3923;DHT22;1976;51.694;6.256;2023-10-31T00:13:52;11.20;99.90
3923;DHT22;1976;51.694;6.256;2023-10-31T00:16:17;11.10;99.90
3923;DHT22;1976;51.694;6.256;2023-10-31T00:18:43;11.10;99.90
3923;DHT22;1976;51.694;6.256;2023-10-31T00:21:08;11.10;99.90
3923;DHT22;1976;51.694;6.256;2023-10-31T00:23:34;11.10;99.90
3923;DHT22;1976;51.694;6.256;2023-10-31T00:26:07;11.20;99.90
3923;DHT22;1976;51.694;6.256;2023-10-31T00:28:32;11.10;99.90
3923;DHT22;1976;51.694;6.256;2023-10-31T00:30:58;11.10;99.90
3923;DHT22;1976;51.694;6.256;2023-10-31T00:33:26;11.00;99.90
3923;DHT22;1976;51.694;6.256;2023-10-31T00:35:52;11.00;99.90
3923;DHT22;1976;51.694;6.256;2023-10-31T00:38:18;11.10;99.90
3923;DHT22;1976;51.694;6.256;2023-10-31T00:40:43;11.00;99.90
3923;DHT22;1976;51.694;6.256;2023-10-31T00:43:09;11.00;99.90
3923;DHT22;1976;51.694;6.256;2023-10-31T00:45:34;11.00;99.90
3923;DHT22;1976;51.694;6.256;2023-10-31T00:48:00;11.00;99.90
3923;DHT22;1976;51.694;6.256;2023-10-31T00:50:25;11.00;99.90
3923;DHT22;1976;51.694;6.256;2023-10-31T00:52:51;10.90;99.90
3923;DHT22;1976;51.694;6.256;2023-10-31T00:55:16;10.90;99.90
3923;DHT22;1976;51.694;6.256;2023-10-31T00:57:42;10.80;99.90
3923;DHT22;1976;51.694;6.256;2023-10-31T01:00:08;10.80;99.90
3923;DHT22;1976;51.694;6.256;2023-10-31T01:02:34;10.80;99.90
3923;DHT22;1976;51.694;6.256;2023-10-31T01:05:00;10.80;99.90
3923;DHT22;1976;51.694;6.256;2023-10-31T01:07:26;10.90;99.90
3923;DHT22;1976;51.694;6.256;2023-10-31T01:09:51;10.80;99.90
3923;DHT22;1976;51.694;6.256;2023-10-31T01:12:17;10.90;99.90
3923;DHT22;1976;51.694;6.256;2023-10-31T01:14:42;10.90;99.90
3923;DHT22;1976;51.694;6.256;2023-10-31T01:17:08;10.90;99.90
3923;DHT22;1976;51.694;6.256;2023-10-31T01:19:34;10.90;99.90
3923;DHT22;1976;51.694;6.256;2023-10-31T01:22:00;10.90;99.90
3923;DHT22;1976;51.694;6.256;2023-10-31T01:24:26;10.90;99.90
3923;DHT22;1976;51.694;6.256;2023-10-31T01:26:51;11.00;99.90
3923;DHT22;1976;51.694;6.256;2023-10-31T01:29:17;10.90;99.90
3923;DHT22;1976;51.694;6.256;2023-10-31T01:31:43;11.00;99.90
3923;DHT22;1976;51.694;6.256;2023-10-31T01:34:08;11.00;99.90
3923;DHT22;1976;51.694;6.256;2023-10-31T01:36:34;11.10;99.90
3923;DHT22;1976;51.694;6.256;2023-10-31T01:39:00;11.10;99.90
3923;DHT22;1976;51.694;6.256;2023-10-31T01:41:25;11.20;99.90
3923;DHT22;1976;51.694;6.256;2023-10-31T01:43:51;11.20;99.90
3923;DHT22;1976;51.694;6.256;2023-10-31T01:46:16;11.10;99.90
3923;DHT22;1976;51.694;6.256;2023-10-31T01:48:42;11.10;99.90
3923;DHT22;1976;51.694;6.256;2023-10-31T01:51:09;11.10;99.90
3923;DHT22;1976;51.694;6.256;2023-10-31T01:53:36;11.10;99.90
3923;DHT22;1976;51.694;6.256;2023-10-31T01:56:03;11.10;99.90
3923;DHT22;1976;51.694;6.256;2023-10-31T01:58:32;11.10;99.90
3923;DHT22;1976;51.694;6.256;2023-10-31T02:00:59;11.20;99.90
3923;DHT22;1976;51.694;6.256;2023-10-31T02:03:29;11.20;99.90
3923;DHT22;1976;51.694;6.256;2023-10-31T02:05:55;11.20;99.90
3923;DHT22;1976;51.694;6.256;2023-10-31T02:08:20;11.20;99.90
3923;DHT22;1976;51.694;6.256;2023-10-31T02:10:46;11.20;99.90
3923;DHT22;1976;51.694;6.256;2023-10-31T02:13:13;11.30;99.90
3923;DHT22;1976;51.694;6.256;2023-10-31T02:15:39;11.30;99.90
3923;DHT22;1976;51.694;6.256;2023-10-31T02:18:06;11.30;99.90
3923;DHT22;1976;51.694;6.256;2023-10-31T02:20:32;11.30;99.90
3923;DHT22;1976;51.694;6.256;2023-10-31T02:22:57;11.30;99.90
3923;DHT22;1976;51.694;6.256;2023-10-31T02:25:23;11.20;99.90
3923;DHT22;1976;51.694;6.256;2023-10-31T02:27:49;11.10;99.90
3923;DHT22;1976;51.694;6.256;2023-10-31T02:30:14;11.00;99.90
3923;DHT22;1976;51.694;6.256;2023-10-31T02:32:41;11.00;99.90
3923;DHT22;1976;51.694;6.256;2023-10-31T02:35:07;11.00;99.90
3923;DHT22;1976;51.694;6.256;2023-10-31T02:37:33;10.90;99.90
3923;DHT22;1976;51.694;6.256;2023-10-31T02:39:59;10.90;99.90
3923;DHT22;1976;51.694;6.256;2023-10-31T02:42:26;10.90;99.90
3923;DHT22;1976;51.694;6.256;2023-10-31T02:44:51;10.80;99.90
3923;DHT22;1976;51.694;6.256;2023-10-31T02:47:17;10.80;99.90
3923;DHT22;1976;51.694;6.256;2023-10-31T02:49:43;10.80;99.90
3923;DHT22;1976;51.694;6.256;2023-10-31T02:52:09;10.90;99.90
3923;DHT22;1976;51.694;6.256;2023-10-31T02:54:34;10.90;99.90
3923;DHT22;1976;51.694;6.256;2023-10-31T02:57:00;10.90;99.90
3923;DHT22;1976;51.694;6.256;2023-10-31T02:59:26;10.80;99.90
3923;DHT22;1976;51.694;6.256;2023-10-31T03:01:52;10.70;99.90
3923;DHT22;1976;51.694;6.256;2023-10-31T03:04:18;10.80;99.90
3923;DHT22;1976;51.694;6.256;2023-10-31T03:06:44;10.80;99.90
3923;DHT22;1976;51.694;6.256;2023-10-31T03:09:09;10.80;99.90
3923;DHT22;1976;51.694;6.256;2023-10-31T03:11:35;10.80;99.90
3923;DHT22;1976;51.694;6.256;2023-10-31T03:14:01;10.80;99.90
3923;DHT22;1976;51.694;6.256;2023-10-31T03:16:26;10.90;99.90
3923;DHT22;1976;51.694;6.256;2023-10-31T03:18:52;10.80;99.90
3923;DHT22;1976;51.694;6.256;2023-10-31T03:21:18;10.80;99.90
3923;DHT22;1976;51.694;6.256;2023-10-31T03:23:46;10.80;99.90
3923;DHT22;1976;51.694;6.256;2023-10-31T03:26:12;10.80;99.90
3923;DHT22;1976;51.694;6.256;2023-10-31T03:28:38;10.70;99.90
3923;DHT22;1976;51.694;6.256;2023-10-31T03:31:03;10.70;99.90
3923;DHT22;1976;51.694;6.256;2023-10-31T03:33:29;10.80;99.90
3923;DHT22;1976;51.694;6.256;2023-10-31T03:35:55;10.80;99.90
3923;DHT22;1976;51.694;6.256;2023-10-31T03:38:20;10.80;99.90
3923;DHT22;1976;51.694;6.256;2023-10-31T03:40:46;10.80;99.90
3923;DHT22;1976;51.694;6.256;2023-10-31T03:43:11;10.80;99.90
3923;DHT22;1976;51.694;6.256;2023-10-31T03:45:37;10.90;99.90
3923;DHT22;1976;51.694;6.256;2023-10-31T03:48:02;10.80;99.90
3923;DHT22;1976;51.694;6.256;2023-10-31T03:50:28;10.90;99.90
3923;DHT22;1976;51.694;6.256;2023-10-31T03:52:54;10.80;99.90
3923;DHT22;1976;51.694;6.256;2023-10-31T03:55:19;11.00;99.90
3923;DHT22;1976;51.694;6.256;2023-10-31T03:57:45;11.00;99.90
3923;DHT22;1976;51.694;6.256;2023-10-31T04:00:11;11.00;99.90
3923;DHT22;1976;51.694;6.256;2023-10-31T04:02:38;11.10;99.90
3923;DHT22;1976;51.694;6.256;2023-10-31T04:05:04;11.10;99.90
3923;DHT22;1976;51.694;6.256;2023-10-31T04:07:30;11.20;99.90
3923;DHT22;1976;51.694;6.256;2023-10-31T04:09:56;11.20;99.90
3923;DHT22;1976;51.694;6.256;2023-10-31T04:12:21;11.20;99.90
3923;DHT22;1976;51.694;6.256;2023-10-31T04:14:47;11.20;99.90
3923;DHT22;1976;51.694;6.256;2023-10-31T04:17:13;11.20;99.90
3923;DHT22;1976;51.694;6.256;2023-10-31T04:19:38;11.10;99.90
3923;DHT22;1976;51.694;6.256;2023-10-31T04:22:04;11.20;99.90
3923;DHT22;1976;51.694;6.256;2023-10-31T04:24:29;11.10;99.90
3923;DHT22;1976;51.694;6.256;2023-10-31T04:26:55;11.10;99.90
3923;DHT22;1976;51.694;6.256;2023-10-31T04:29:21;11.10;99.90
3923;DHT22;1976;51.694;6.256;2023-10-31T04:31:46;11.10;99.90
3923;DHT22;1976;51.694;6.256;2023-10-31T04:34:12;11.10;99.90
3923;DHT22;1976;51.694;6.256;2023-10-31T04:36:38;11.20;99.90
3923;DHT22;1976;51.694;6.256;2023-10-31T04:39:03;11.10;99.90
3923;DHT22;1976;51.694;6.256;2023-10-31T04:41:29;11.10;99.90
3923;DHT22;1976;51.694;6.256;2023-10-31T04:43:55;11.20;99.90
3923;DHT22;1976;51.694;6.256;2023-10-31T04:46:21;11.20;99.90
3923;DHT22;1976;51.694;6.256;2023-10-31T04:48:46;11.20;99.90
3923;DHT22;1976;51.694;6.256;2023-10-31T04:51:12;11.10;99.90
3923;DHT22;1976;51.694;6.256;2023-10-31T04:53:38;11.20;99.90
3923;DHT22;1976;51.694;6.256;2023-10-31T04:56:04;11.20;99.90
3923;DHT22;1976;51.694;6.256;2023-10-31T04:58:30;11.20;99.90
3923;DHT22;1976;51.694;6.256;2023-10-31T05:00:55;11.20;99.90
3923;DHT22;1976;51.694;6.256;2023-10-31T05:03:21;11.20;99.90
3923;DHT22;1976;51.694;6.256;2023-10-31T05:05:46;11.20;99.90
3923;DHT22;1976;51.694;6.256;2023-10-31T05:08:12;11.20;99.90
3923;DHT22;1976;51.694;6.256;2023-10-31T05:10:37;11.20;99.90
3923;DHT22;1976;51.694;6.256;2023-10-31T05:13:03;11.20;99.90
3923;DHT22;1976;51.694;6.256;2023-10-31T05:15:28;11.20;99.90
3923;DHT22;1976;51.694;6.256;2023-10-31T05:17:54;11.20;99.90
3923;DHT22;1976;51.694;6.256;2023-10-31T05:20:20;11.20;99.90
3923;DHT22;1976;51.694;6.256;2023-10-31T05:22:46;11.20;99.90
3923;DHT22;1976;51.694;6.256;2023-10-31T05:25:11;11.20;99.90
3923;DHT22;1976;51.694;6.256;2023-10-31T05:27:37;11.20;99.90
3923;DHT22;1976;51.694;6.256;2023-10-31T05:30:03;11.20;99.90
3923;DHT22;1976;51.694;6.256;2023-10-31T05:32:29;11.20;99.90
3923;DHT22;1976;51.694;6.256;2023-10-31T05:34:55;11.20;99.90
3923;DHT22;1976;51.694;6.256;2023-10-31T05:37:20;11.20;99.90
3923;DHT22;1976;51.694;6.256;2023-10-31T05:39:46;11.20;99.90
3923;DHT22;1976;51.694;6.256;2023-10-31T05:42:11;11.20;99.90
3923;DHT22;1976;51.694;6.256;2023-10-31T05:44:37;11.20;99.90
3923;DHT22;1976;51.694;6.256;2023-10-31T05:47:03;11.30;99.90
3923;DHT22;1976;51.694;6.256;2023-10-31T05:49:29;11.20;99.90
3923;DHT22;1976;51.694;6.256;2023-10-31T05:51:55;11.30;99.90
3923;DHT22;1976;51.694;6.256;2023-10-31T05:54:21;11.20;99.90
3923;DHT22;1976;51.694;6.256;2023-10-31T05:56:47;11.30;99.90
3923;DHT22;1976;51.694;6.256;2023-10-31T05:59:12;11.30;99.90
3923;DHT22;1976;51.694;6.256;2023-10-31T06:01:38;11.20;99.90
3923;DHT22;1976;51.694;6.256;2023-10-31T06:04:04;11.10;99.90
3923;DHT22;1976;51.694;6.256;2023-10-31T06:06:33;11.10;99.90
3923;DHT22;1976;51.694;6.256;2023-10-31T06:08:59;11.10;99.90
3923;DHT22;1976;51.694;6.256;2023-10-31T06:11:25;11.10;99.90
3923;DHT22;1976;51.694;6.256;2023-10-31T06:13:50;11.10;99.90
3923;DHT22;1976;51.694;6.256;2023-10-31T06:16:16;11.10;99.90
3923;DHT22;1976;51.694;6.256;2023-10-31T06:18:41;11.10;99.90
3923;DHT22;1976;51.694;6.256;2023-10-31T06:21:07;11.10;99.90
3923;DHT22;1976;51.694;6.256;2023-10-31T06:23:38;11.10;99.90
3923;DHT22;1976;51.694;6.256;2023-10-31T06:26:04;11.20;99.90
3923;DHT22;1976;51.694;6.256;2023-10-31T06:28:30;11.20;99.90
3923;DHT22;1976;51.694;6.256;2023-10-31T06:30:57;11.10;99.90
3923;DHT22;1976;51.694;6.256;2023-10-31T06:33:23;11.20;99.90
3923;DHT22;1976;51.694;6.256;2023-10-31T06:35:48;11.20;99.90
3923;DHT22;1976;51.694;6.256;2023-10-31T06:38:14;11.20;99.90
3923;DHT22;1976;51.694;6.256;2023-10-31T06:40:39;11.10;99.90
3923;DHT22;1976;51.694;6.256;2023-10-31T06:43:05;11.10;99.90
3923;DHT22;1976;51.694;6.256;2023-10-31T06:45:31;11.10;99.90
3923;DHT22;1976;51.694;6.256;2023-10-31T06:47:57;11.00;99.90
3923;DHT22;1976;51.694;6.256;2023-10-31T06:50:23;11.00;99.90
3923;DHT22;1976;51.694;6.256;2023-10-31T06:52:49;11.10;99.90
3923;DHT22;1976;51.694;6.256;2023-10-31T06:55:15;11.10;99.90
3923;DHT22;1976;51.694;6.256;2023-10-31T06:57:40;11.10;99.90
3923;DHT22;1976;51.694;6.256;2023-10-31T07:00:06;11.10;99.90
3923;DHT22;1976;51.694;6.256;2023-10-31T07:02:35;11.10;99.90
3923;DHT22;1976;51.694;6.256;2023-10-31T07:05:01;11.10;99.90
3923;DHT22;1976;51.694;6.256;2023-10-31T07:07:26;11.10;99.90
3923;DHT22;1976;51.694;6.256;2023-10-31T07:09:52;11.00;99.90
3923;DHT22;1976;51.694;6.256;2023-10-31T07:12:17;11.00;99.90
3923;DHT22;1976;51.694;6.256;2023-10-31T07:14:43;11.10;99.90
3923;DHT22;1976;51.694;6.256;2023-10-31T07:17:09;11.10;99.90
3923;DHT22;1976;51.694;6.256;2023-10-31T07:19:34;11.10;99.90
3923;DHT22;1976;51.694;6.256;2023-10-31T07:22:00;11.10;99.90
3923;DHT22;1976;51.694;6.256;2023-10-31T07:24:26;11.20;99.90
3923;DHT22;1976;51.694;6.256;2023-10-31T07:26:53;11.20;99.90
3923;DHT22;1976;51.694;6.256;2023-10-31T07:29:19;11.20;99.90
3923;DHT22;1976;51.694;6.256;2023-10-31T07:31:45;11.10;99.90
3923;DHT22;1976;51.694;6.256;2023-10-31T07:34:11;11.10;99.90
3923;DHT22;1976;51.694;6.256;2023-10-31T07:36:37;11.00;99.90
3923;DHT22;1976;51.694;6.256;2023-10-31T07:39:04;11.00;99.90
3923;DHT22;1976;51.694;6.256;2023-10-31T07:41:30;10.90;99.90
3923;DHT22;1976;51.694;6.256;2023-10-31T07:43:55;11.10;99.90
3923;DHT22;1976;51.694;6.256;2023-10-31T07:46:21;11.10;99.90
3923;DHT22;1976;51.694;6.256;2023-10-31T07:48:48;11.30;99.90
3923;DHT22;1976;51.694;6.256;2023-10-31T07:51:14;11.50;99.90
3923;DHT22;1976;51.694;6.256;2023-10-31T07:53:41;11.60;99.90
3923;DHT22;1976;51.694;6.256;2023-10-31T07:56:16;11.60;99.90
3923;DHT22;1976;51.694;6.256;2023-10-31T07:58:42;11.60;99.90
3923;DHT22;1976;51.694;6.256;2023-10-31T08:01:08;11.70;99.90
3923;DHT22;1976;51.694;6.256;2023-10-31T08:03:36;11.80;99.90
3923;DHT22;1976;51.694;6.256;2023-10-31T08:06:03;11.80;99.90
3923;DHT22;1976;51.694;6.256;2023-10-31T08:08:29;11.80;99.90
3923;DHT22;1976;51.694;6.256;2023-10-31T08:10:55;11.90;99.90
3923;DHT22;1976;51.694;6.256;2023-10-31T08:13:22;12.00;99.90
3923;DHT22;1976;51.694;6.256;2023-10-31T08:15:48;12.00;99.90
3923;DHT22;1976;51.694;6.256;2023-10-31T08:18:13;12.10;99.90
3923;DHT22;1976;51.694;6.256;2023-10-31T08:20:39;12.30;99.90
3923;DHT22;1976;51.694;6.256;2023-10-31T08:23:04;12.30;99.90
3923;DHT22;1976;51.694;6.256;2023-10-31T08:25:30;12.20;99.90
3923;DHT22;1976;51.694;6.256;2023-10-31T08:27:55;12.10;99.90
3923;DHT22;1976;51.694;6.256;2023-10-31T08:30:22;12.10;99.90
3923;DHT22;1976;51.694;6.256;2023-10-31T08:32:48;12.20;99.90
3923;DHT22;1976;51.694;6.256;2023-10-31T08:35:13;12.30;99.90
3923;DHT22;1976;51.694;6.256;2023-10-31T08:37:39;12.40;99.90
3923;DHT22;1976;51.694;6.256;2023-10-31T08:40:05;13.00;99.90
3923;DHT22;1976;51.694;6.256;2023-10-31T08:42:31;13.70;99.90
3923;DHT22;1976;51.694;6.256;2023-10-31T08:44:56;14.50;99.90
3923;DHT22;1976;51.694;6.256;2023-10-31T08:47:22;14.90;99.90
3923;DHT22;1976;51.694;6.256;2023-10-31T08:49:48;15.50;99.90
3923;DHT22;1976;51.694;6.256;2023-10-31T08:52:14;15.60;99.90
3923;DHT22;1976;51.694;6.256;2023-10-31T08:54:39;16.00;99.90
3923;DHT22;1976;51.694;6.256;2023-10-31T08:57:05;16.50;99.90
3923;DHT22;1976;51.694;6.256;2023-10-31T08:59:30;16.50;99.90
3923;DHT22;1976;51.694;6.256;2023-10-31T09:01:56;16.00;99.90
3923;DHT22;1976;51.694;6.256;2023-10-31T09:04:21;15.60;99.90
3923;DHT22;1976;51.694;6.256;2023-10-31T09:06:47;15.50;99.90
3923;DHT22;1976;51.694;6.256;2023-10-31T09:09:13;15.50;99.90
3923;DHT22;1976;51.694;6.256;2023-10-31T09:11:39;16.40;99.90
3923;DHT22;1976;51.694;6.256;2023-10-31T09:14:04;16.20;99.90
3923;DHT22;1976;51.694;6.256;2023-10-31T09:16:30;16.20;99.90
3923;DHT22;1976;51.694;6.256;2023-10-31T09:18:55;16.00;99.90
3923;DHT22;1976;51.694;6.256;2023-10-31T09:21:21;15.50;99.90
3923;DHT22;1976;51.694;6.256;2023-10-31T09:23:47;15.20;99.90
3923;DHT22;1976;51.694;6.256;2023-10-31T09:26:12;14.70;99.90
3923;DHT22;1976;51.694;6.256;2023-10-31T09:28:38;14.60;99.90
3923;DHT22;1976;51.694;6.256;2023-10-31T09:31:05;14.50;99.90
3923;DHT22;1976;51.694;6.256;2023-10-31T09:33:31;14.40;99.90
3923;DHT22;1976;51.694;6.256;2023-10-31T09:35:56;14.50;99.90
3923;DHT22;1976;51.694;6.256;2023-10-31T09:38:22;14.40;99.90
3923;DHT22;1976;51.694;6.256;2023-10-31T09:40:48;14.20;99.90
3923;DHT22;1976;51.694;6.256;2023-10-31T09:43:16;14.10;99.90
3923;DHT22;1976;51.694;6.256;2023-10-31T09:45:41;14.00;99.90
3923;DHT22;1976;51.694;6.256;2023-10-31T09:48:07;14.10;99.90
3923;DHT22;1976;51.694;6.256;2023-10-31T09:50:33;14.60;99.90
3923;DHT22;1976;51.694;6.256;2023-10-31T09:53:00;14.70;99.90
3923;DHT22;1976;51.694;6.256;2023-10-31T09:55:25;14.70;99.90
3923;DHT22;1976;51.694;6.256;2023-10-31T09:57:51;14.60;99.90
3923;DHT22;1976;51.694;6.256;2023-10-31T10:00:18;14.40;99.90
3923;DHT22;1976;51.694;6.256;2023-10-31T10:02:43;14.30;99.90
3923;DHT22;1976;51.694;6.256;2023-10-31T10:05:09;14.10;99.90
3923;DHT22;1976;51.694;6.256;2023-10-31T10:07:35;14.00;99.90
3923;DHT22;1976;51.694;6.256;2023-10-31T10:10:01;14.10;99.90
3923;DHT22;1976;51.694;6.256;2023-10-31T10:12:27;14.20;99.90
3923;DHT22;1976;51.694;6.256;2023-10-31T10:14:53;14.10;99.90
3923;DHT22;1976;51.694;6.256;2023-10-31T10:17:22;14.10;99.90
3923;DHT22;1976;51.694;6.256;2023-10-31T10:19:51;13.90;99.90
3923;DHT22;1976;51.694;6.256;2023-10-31T10:22:29;13.90;99.90
3923;DHT22;1976;51.694;6.256;2023-10-31T10:24:55;13.90;99.90
3923;DHT22;1976;51.694;6.256;2023-10-31T10:27:20;13.90;99.90
3923;DHT22;1976;51.694;6.256;2023-10-31T10:29:46;13.90;99.90
3923;DHT22;1976;51.694;6.256;2023-10-31T10:32:12;13.90;99.90
3923;DHT22;1976;51.694;6.256;2023-10-31T10:34:38;13.60;99.90
3923;DHT22;1976;51.694;6.256;2023-10-31T10:37:05;13.50;99.90
3923;DHT22;1976;51.694;6.256;2023-10-31T10:39:33;13.50;99.90
3923;DHT22;1976;51.694;6.256;2023-10-31T10:42:01;13.50;99.90
3923;DHT22;1976;51.694;6.256;2023-10-31T10:44:34;13.50;99.90
3923;DHT22;1976;51.694;6.256;2023-10-31T10:47:07;13.60;99.90
3923;DHT22;1976;51.694;6.256;2023-10-31T10:49:34;13.70;99.90
3923;DHT22;1976;51.694;6.256;2023-10-31T10:52:18;13.90;99.90
3923;DHT22;1976;51.694;6.256;2023-10-31T10:54:53;14.10;99.90
3923;DHT22;1976;51.694;6.256;2023-10-31T10:57:42;14.00;99.90
3923;DHT22;1976;51.694;6.256;2023-10-31T11:00:11;13.90;99.90
3923;DHT22;1976;51.694;6.256;2023-10-31T11:02:39;13.70;99.90
3923;DHT22;1976;51.694;6.256;2023-10-31T11:05:09;13.80;99.90
3923;DHT22;1976;51.694;6.256;2023-10-31T11:07:37;14.60;99.90
3923;DHT22;1976;51.694;6.256;2023-10-31T11:10:03;15.40;99.90
3923;DHT22;1976;51.694;6.256;2023-10-31T11:12:30;15.60;99.90
3923;DHT22;1976;51.694;6.256;2023-10-31T11:14:58;15.20;99.90
3923;DHT22;1976;51.694;6.256;2023-10-31T11:17:31;14.60;99.90
3923;DHT22;1976;51.694;6.256;2023-10-31T11:19:57;14.30;99.90
3923;DHT22;1976;51.694;6.256;2023-10-31T11:22:23;13.90;99.90
3923;DHT22;1976;51.694;6.256;2023-10-31T11:24:49;13.70;99.90
3923;DHT22;1976;51.694;6.256;2023-10-31T11:27:17;13.70;99.90
3923;DHT22;1976;51.694;6.256;2023-10-31T11:29:42;13.50;99.90
3923;DHT22;1976;51.694;6.256;2023-10-31T11:32:10;13.50;99.90
3923;DHT22;1976;51.694;6.256;2023-10-31T11:34:38;13.50;99.90
3923;DHT22;1976;51.694;6.256;2023-10-31T11:37:27;13.50;99.90
3923;DHT22;1976;51.694;6.256;2023-10-31T11:40:17;13.60;99.90
3923;DHT22;1976;51.694;6.256;2023-10-31T11:42:51;13.70;99.90
3923;DHT22;1976;51.694;6.256;2023-10-31T11:45:34;13.50;99.90
3923;DHT22;1976;51.694;6.256;2023-10-31T11:48:01;13.30;99.90
3923;DHT22;1976;51.694;6.256;2023-10-31T11:50:27;13.40;99.90
3923;DHT22;1976;51.694;6.256;2023-10-31T11:55:28;13.40;99.90
3923;DHT22;1976;51.694;6.256;2023-10-31T11:57:53;13.40;99.90
3923;DHT22;1976;51.694;6.256;2023-10-31T12:00:23;13.50;99.90
3923;DHT22;1976;51.694;6.256;2023-10-31T12:02:59;13.50;99.90
3923;DHT22;1976;51.694;6.256;2023-10-31T12:05:25;13.40;99.90
3923;DHT22;1976;51.694;6.256;2023-10-31T12:07:51;13.40;99.90
3923;DHT22;1976;51.694;6.256;2023-10-31T12:10:28;13.40;99.90
3923;DHT22;1976;51.694;6.256;2023-10-31T12:12:58;13.40;99.90
3923;DHT22;1976;51.694;6.256;2023-10-31T12:15:24;13.60;99.90
3923;DHT22;1976;51.694;6.256;2023-10-31T12:17:50;13.60;99.90
3923;DHT22;1976;51.694;6.256;2023-10-31T12:20:16;13.40;99.90
3923;DHT22;1976;51.694;6.256;2023-10-31T12:22:42;13.30;99.90
3923;DHT22;1976;51.694;6.256;2023-10-31T12:25:09;13.30;99.90
3923;DHT22;1976;51.694;6.256;2023-10-31T12:27:46;13.10;99.90
3923;DHT22;1976;51.694;6.256;2023-10-31T12:30:19;13.10;99.90
3923;DHT22;1976;51.694;6.256;2023-10-31T12:32:47;13.00;99.90
3923;DHT22;1976;51.694;6.256;2023-10-31T12:35:22;13.00;99.90
3923;DHT22;1976;51.694;6.256;2023-10-31T12:37:48;13.00;99.90
3923;DHT22;1976;51.694;6.256;2023-10-31T12:40:21;13.10;99.90
3923;DHT22;1976;51.694;6.256;2023-10-31T12:42:48;13.10;99.90
3923;DHT22;1976;51.694;6.256;2023-10-31T12:45:15;13.30;99.90
3923;DHT22;1976;51.694;6.256;2023-10-31T12:47:42;13.70;99.90
3923;DHT22;1976;51.694;6.256;2023-10-31T12:50:11;13.90;99.90
3923;DHT22;1976;51.694;6.256;2023-10-31T12:52:49;14.00;99.90
3923;DHT22;1976;51.694;6.256;2023-10-31T12:55:20;14.40;99.90
3923;DHT22;1976;51.694;6.256;2023-10-31T12:57:47;14.40;99.90
3923;DHT22;1976;51.694;6.256;2023-10-31T13:00:15;14.10;99.90
3923;DHT22;1976;51.694;6.256;2023-10-31T13:02:42;14.10;99.90
3923;DHT22;1976;51.694;6.256;2023-10-31T13:05:15;14.10;99.90
3923;DHT22;1976;51.694;6.256;2023-10-31T13:07:51;14.10;99.90
3923;DHT22;1976;51.694;6.256;2023-10-31T13:10:27;14.00;99.90
3923;DHT22;1976;51.694;6.256;2023-10-31T13:12:58;13.90;99.90
3923;DHT22;1976;51.694;6.256;2023-10-31T13:15:24;13.90;99.90
3923;DHT22;1976;51.694;6.256;2023-10-31T13:17:50;14.20;99.90
3923;DHT22;1976;51.694;6.256;2023-10-31T13:20:18;15.30;99.90
3923;DHT22;1976;51.694;6.256;2023-10-31T13:22:44;16.50;99.90
3923;DHT22;1976;51.694;6.256;2023-10-31T13:25:12;16.70;99.90
3923;DHT22;1976;51.694;6.256;2023-10-31T13:27:42;16.80;99.90
3923;DHT22;1976;51.694;6.256;2023-10-31T13:30:09;17.80;99.90
3923;DHT22;1976;51.694;6.256;2023-10-31T13:32:42;18.90;99.90
3923;DHT22;1976;51.694;6.256;2023-10-31T13:35:08;19.30;99.90
3923;DHT22;1976;51.694;6.256;2023-10-31T13:37:37;19.80;99.90
3923;DHT22;1976;51.694;6.256;2023-10-31T13:40:03;20.10;99.90
3923;DHT22;1976;51.694;6.256;2023-10-31T13:42:29;20.50;99.90
3923;DHT22;1976;51.694;6.256;2023-10-31T13:44:55;20.70;99.50
3923;DHT22;1976;51.694;6.256;2023-10-31T13:47:21;20.80;99.70
3923;DHT22;1976;51.694;6.256;2023-10-31T13:49:46;21.10;98.70
3923;DHT22;1976;51.694;6.256;2023-10-31T13:52:12;20.70;99.10
3923;DHT22;1976;51.694;6.256;2023-10-31T13:54:38;20.10;99.40
3923;DHT22;1976;51.694;6.256;2023-10-31T13:57:03;19.40;99.90
3923;DHT22;1976;51.694;6.256;2023-10-31T13:59:29;18.90;99.90
3923;DHT22;1976;51.694;6.256;2023-10-31T14:01:55;18.30;99.90
3923;DHT22;1976;51.694;6.256;2023-10-31T14:04:20;17.30;99.90
3923;DHT22;1976;51.694;6.256;2023-10-31T14:06:46;16.70;99.90
3923;DHT22;1976;51.694;6.256;2023-10-31T14:09:12;16.00;99.90
3923;DHT22;1976;51.694;6.256;2023-10-31T14:11:41;16.00;99.90
3923;DHT22;1976;51.694;6.256;2023-10-31T14:14:07;16.00;99.90
3923;DHT22;1976;51.694;6.256;2023-10-31T14:16:41;15.90;99.90
3923;DHT22;1976;51.694;6.256;2023-10-31T14:19:08;15.80;99.90
3923;DHT22;1976;51.694;6.256;2023-10-31T14:21:34;15.50;99.90
3923;DHT22;1976;51.694;6.256;2023-10-31T14:24:01;15.30;99.90
3923;DHT22;1976;51.694;6.256;2023-10-31T14:26:28;15.20;99.90
3923;DHT22;1976;51.694;6.256;2023-10-31T14:28:54;15.10;99.90
3923;DHT22;1976;51.694;6.256;2023-10-31T14:31:20;14.90;99.90
3923;DHT22;1976;51.694;6.256;2023-10-31T14:33:49;14.90;99.90
3923;DHT22;1976;51.694;6.256;2023-10-31T14:36:14;14.80;99.90
3923;DHT22;1976;51.694;6.256;2023-10-31T14:38:41;14.60;99.90
3923;DHT22;1976;51.694;6.256;2023-10-31T14:41:07;14.60;99.90
3923;DHT22;1976;51.694;6.256;2023-10-31T14:43:33;14.40;99.90
3923;DHT22;1976;51.694;6.256;2023-10-31T14:45:59;14.30;99.90
3923;DHT22;1976;51.694;6.256;2023-10-31T14:48:25;14.30;99.90
3923;DHT22;1976;51.694;6.256;2023-10-31T14:50:50;14.30;99.90
3923;DHT22;1976;51.694;6.256;2023-10-31T14:53:17;14.00;99.90
3923;DHT22;1976;51.694;6.256;2023-10-31T14:55:45;13.70;99.90
3923;DHT22;1976;51.694;6.256;2023-10-31T14:58:11;13.60;99.90
3923;DHT22;1976;51.694;6.256;2023-10-31T15:00:37;13.60;99.90
3923;DHT22;1976;51.694;6.256;2023-10-31T15:03:03;13.50;99.90
3923;DHT22;1976;51.694;6.256;2023-10-31T15:05:29;13.50;99.90
3923;DHT22;1976;51.694;6.256;2023-10-31T15:07:55;13.40;99.90
3923;DHT22;1976;51.694;6.256;2023-10-31T15:10:21;13.50;99.90
3923;DHT22;1976;51.694;6.256;2023-10-31T15:12:48;13.40;99.90
3923;DHT22;1976;51.694;6.256;2023-10-31T15:15:15;13.40;99.90
3923;DHT22;1976;51.694;6.256;2023-10-31T15:17:41;13.50;99.90
3923;DHT22;1976;51.694;6.256;2023-10-31T15:20:07;13.50;99.90
3923;DHT22;1976;51.694;6.256;2023-10-31T15:22:35;13.50;99.90
3923;DHT22;1976;51.694;6.256;2023-10-31T15:25:02;13.50;99.90
3923;DHT22;1976;51.694;6.256;2023-10-31T15:27:28;13.40;99.90
3923;DHT22;1976;51.694;6.256;2023-10-31T15:29:53;13.40;99.90
3923;DHT22;1976;51.694;6.256;2023-10-31T15:32:19;13.40;99.90
3923;DHT22;1976;51.694;6.256;2023-10-31T15:34:45;13.40;99.90
3923;DHT22;1976;51.694;6.256;2023-10-31T15:37:10;13.40;99.90
3923;DHT22;1976;51.694;6.256;2023-10-31T15:39:41;13.40;99.90
3923;DHT22;1976;51.694;6.256;2023-10-31T15:42:07;13.30;99.90
3923;DHT22;1976;51.694;6.256;2023-10-31T15:44:36;13.30;99.90
3923;DHT22;1976;51.694;6.256;2023-10-31T15:47:03;13.20;99.90
3923;DHT22;1976;51.694;6.256;2023-10-31T15:49:28;13.20;99.90
3923;DHT22;1976;51.694;6.256;2023-10-31T15:51:54;13.20;99.90
3923;DHT22;1976;51.694;6.256;2023-10-31T15:54:19;13.10;99.90
3923;DHT22;1976;51.694;6.256;2023-10-31T15:56:45;12.80;99.90
3923;DHT22;1976;51.694;6.256;2023-10-31T15:59:11;12.70;99.90
3923;DHT22;1976;51.694;6.256;2023-10-31T16:01:36;12.70;99.90